sensor_id;sensor_type;location;lat;lon;timestamp;temperature;humidity
14014;DHT22;49110;52.584;13.408;2023-07-13T00:00:05;22.10;81.10
14014;DHT22;49110;52.584;13.408;2023-07-13T00:01:10;22.10;80.90
14014;DHT22;49110;52.584;13.408;2023-07-13T00:02:11;22.10;81.30
14014;DHT22;49110;52.584;13.408;2023-07-13T00:03:11;22.10;81.50
14014;DHT22;49110;52.584;13.408;2023-07-13T00:04:13;22.20;81.80
14014;DHT22;49110;52.584;13.408;2023-07-13T00:05:14;22.10;81.40
14014;DHT22;49110;52.584;13.408;2023-07-13T00:06:14;22.20;81.40
14014;DHT22;49110;52.584;13.408;2023-07-13T00:07:15;22.20;81.30
14014;DHT22;49110;52.584;13.408;2023-07-13T00:08:15;22.20;81.00
14014;DHT22;49110;52.584;13.408;2023-07-13T00:09:17;22.10;81.10
14014;DHT22;49110;52.584;13.408;2023-07-13T00:10:17;22.10;80.80
14014;DHT22;49110;52.584;13.408;2023-07-13T00:11:18;22.10;80.90
14014;DHT22;49110;52.584;13.408;2023-07-13T00:12:30;22.20;81.20
14014;DHT22;49110;52.584;13.408;2023-07-13T00:13:31;22.10;81.20
14014;DHT22;49110;52.584;13.408;2023-07-13T00:14:31;22.10;81.10
14014;DHT22;49110;52.584;13.408;2023-07-13T00:15:32;22.10;81.20
14014;DHT22;49110;52.584;13.408;2023-07-13T00:16:35;22.10;81.40
14014;DHT22;49110;52.584;13.408;2023-07-13T00:17:36;22.10;81.50
14014;DHT22;49110;52.584;13.408;2023-07-13T00:18:38;22.10;81.30
14014;DHT22;49110;52.584;13.408;2023-07-13T00:19:39;22.00;81.30
14014;DHT22;49110;52.584;13.408;2023-07-13T00:20:39;22.10;81.60
14014;DHT22;49110;52.584;13.408;2023-07-13T00:21:42;22.00;81.40
14014;DHT22;49110;52.584;13.408;2023-07-13T00:22:42;22.10;81.50
14014;DHT22;49110;52.584;13.408;2023-07-13T00:23:43;22.10;81.60
14014;DHT22;49110;52.584;13.408;2023-07-13T00:24:44;22.10;81.60
14014;DHT22;49110;52.584;13.408;2023-07-13T00:25:44;22.10;81.50
14014;DHT22;49110;52.584;13.408;2023-07-13T00:26:45;22.10;81.40
14014;DHT22;49110;52.584;13.408;2023-07-13T00:27:47;22.20;81.40
14014;DHT22;49110;52.584;13.408;2023-07-13T00:28:49;22.20;81.30
14014;DHT22;49110;52.584;13.408;2023-07-13T00:29:50;22.20;81.20
14014;DHT22;49110;52.584;13.408;2023-07-13T00:30:50;22.10;81.10
14014;DHT22;49110;52.584;13.408;2023-07-13T00:31:50;22.20;81.10
14014;DHT22;49110;52.584;13.408;2023-07-13T00:32:51;22.10;81.10
14014;DHT22;49110;52.584;13.408;2023-07-13T00:33:51;22.10;81.30
14014;DHT22;49110;52.584;13.408;2023-07-13T00:34:52;22.00;81.30
14014;DHT22;49110;52.584;13.408;2023-07-13T00:35:54;22.00;81.30
14014;DHT22;49110;52.584;13.408;2023-07-13T00:36:54;22.00;81.40
14014;DHT22;49110;52.584;13.408;2023-07-13T00:37:55;22.00;81.50
14014;DHT22;49110;52.584;13.408;2023-07-13T00:38:56;22.00;81.60
14014;DHT22;49110;52.584;13.408;2023-07-13T00:39:57;22.00;81.60
14014;DHT22;49110;52.584;13.408;2023-07-13T00:40:57;21.90;81.60
14014;DHT22;49110;52.584;13.408;2023-07-13T00:41:59;21.90;81.70
14014;DHT22;49110;52.584;13.408;2023-07-13T00:42:59;21.90;81.80
14014;DHT22;49110;52.584;13.408;2023-07-13T00:44:00;21.90;81.80
14014;DHT22;49110;52.584;13.408;2023-07-13T00:46:20;21.90;82.10
14014;DHT22;49110;52.584;13.408;2023-07-13T00:47:20;21.80;82.20
14014;DHT22;49110;52.584;13.408;2023-07-13T00:48:24;21.80;82.40
14014;DHT22;49110;52.584;13.408;2023-07-13T00:49:28;21.80;82.60
14014;DHT22;49110;52.584;13.408;2023-07-13T00:50:30;21.80;82.70
14014;DHT22;49110;52.584;13.408;2023-07-13T00:51:45;21.80;82.90
14014;DHT22;49110;52.584;13.408;2023-07-13T00:52:50;21.70;82.80
14014;DHT22;49110;52.584;13.408;2023-07-13T00:53:54;21.70;83.20
14014;DHT22;49110;52.584;13.408;2023-07-13T00:54:57;21.60;83.10
14014;DHT22;49110;52.584;13.408;2023-07-13T00:55:57;21.60;83.40
14014;DHT22;49110;52.584;13.408;2023-07-13T00:57:03;21.60;83.50
14014;DHT22;49110;52.584;13.408;2023-07-13T00:58:05;21.50;84.00
14014;DHT22;49110;52.584;13.408;2023-07-13T00:59:08;21.40;84.30
14014;DHT22;49110;52.584;13.408;2023-07-13T01:00:12;21.30;84.50
14014;DHT22;49110;52.584;13.408;2023-07-13T01:01:12;21.20;84.80
14014;DHT22;49110;52.584;13.408;2023-07-13T01:02:13;21.30;84.80
14014;DHT22;49110;52.584;13.408;2023-07-13T01:03:14;21.30;85.10
14014;DHT22;49110;52.584;13.408;2023-07-13T01:04:16;21.10;85.10
14014;DHT22;49110;52.584;13.408;2023-07-13T01:05:20;21.00;85.40
14014;DHT22;49110;52.584;13.408;2023-07-13T01:06:21;21.00;85.60
14014;DHT22;49110;52.584;13.408;2023-07-13T01:07:21;21.10;85.70
14014;DHT22;49110;52.584;13.408;2023-07-13T01:08:22;21.20;85.70
14014;DHT22;49110;52.584;13.408;2023-07-13T01:09:22;21.20;85.60
14014;DHT22;49110;52.584;13.408;2023-07-13T01:10:24;21.20;85.40
14014;DHT22;49110;52.584;13.408;2023-07-13T01:11:26;21.30;85.40
14014;DHT22;49110;52.584;13.408;2023-07-13T01:12:27;21.30;85.30
14014;DHT22;49110;52.584;13.408;2023-07-13T01:13:27;21.30;85.30
14014;DHT22;49110;52.584;13.408;2023-07-13T01:14:28;21.40;86.00
14014;DHT22;49110;52.584;13.408;2023-07-13T01:15:49;21.40;85.30
14014;DHT22;49110;52.584;13.408;2023-07-13T01:16:50;21.40;85.20
14014;DHT22;49110;52.584;13.408;2023-07-13T01:17:50;21.50;85.30
14014;DHT22;49110;52.584;13.408;2023-07-13T01:18:51;21.50;85.30
14014;DHT22;49110;52.584;13.408;2023-07-13T01:19:51;21.50;85.20
14014;DHT22;49110;52.584;13.408;2023-07-13T01:21:53;21.50;85.20
14014;DHT22;49110;52.584;13.408;2023-07-13T01:22:54;21.40;85.00
14014;DHT22;49110;52.584;13.408;2023-07-13T01:23:54;21.40;85.10
14014;DHT22;49110;52.584;13.408;2023-07-13T01:24:55;21.40;85.20
14014;DHT22;49110;52.584;13.408;2023-07-13T01:25:56;21.40;85.30
14014;DHT22;49110;52.584;13.408;2023-07-13T01:26:56;21.40;85.40
14014;DHT22;49110;52.584;13.408;2023-07-13T01:27:57;21.40;85.30
14014;DHT22;49110;52.584;13.408;2023-07-13T01:28:57;21.30;85.40
14014;DHT22;49110;52.584;13.408;2023-07-13T01:29:58;21.30;85.50
14014;DHT22;49110;52.584;13.408;2023-07-13T01:31:03;21.30;85.60
14014;DHT22;49110;52.584;13.408;2023-07-13T01:32:04;21.30;85.60
14014;DHT22;49110;52.584;13.408;2023-07-13T01:33:06;21.30;85.80
14014;DHT22;49110;52.584;13.408;2023-07-13T01:34:07;21.30;86.00
14014;DHT22;49110;52.584;13.408;2023-07-13T01:35:08;21.20;86.00
14014;DHT22;49110;52.584;13.408;2023-07-13T01:36:09;21.20;85.90
14014;DHT22;49110;52.584;13.408;2023-07-13T01:37:12;21.20;86.00
14014;DHT22;49110;52.584;13.408;2023-07-13T01:38:18;21.10;86.20
14014;DHT22;49110;52.584;13.408;2023-07-13T01:39:21;21.10;86.60
14014;DHT22;49110;52.584;13.408;2023-07-13T01:40:22;21.10;86.50
14014;DHT22;49110;52.584;13.408;2023-07-13T01:41:22;21.10;86.40
14014;DHT22;49110;52.584;13.408;2023-07-13T01:42:23;21.10;86.40
14014;DHT22;49110;52.584;13.408;2023-07-13T01:43:23;21.10;86.40
14014;DHT22;49110;52.584;13.408;2023-07-13T01:44:24;21.10;86.40
14014;DHT22;49110;52.584;13.408;2023-07-13T01:45:25;21.10;86.30
14014;DHT22;49110;52.584;13.408;2023-07-13T01:46:25;21.10;86.30
14014;DHT22;49110;52.584;13.408;2023-07-13T01:47:26;21.10;86.20
14014;DHT22;49110;52.584;13.408;2023-07-13T01:48:28;21.10;86.20
14014;DHT22;49110;52.584;13.408;2023-07-13T01:49:28;21.10;86.20
14014;DHT22;49110;52.584;13.408;2023-07-13T01:50:29;21.10;86.30
14014;DHT22;49110;52.584;13.408;2023-07-13T01:51:29;21.10;87.00
14014;DHT22;49110;52.584;13.408;2023-07-13T01:52:29;21.00;86.40
14014;DHT22;49110;52.584;13.408;2023-07-13T01:53:30;21.00;86.40
14014;DHT22;49110;52.584;13.408;2023-07-13T01:54:30;21.00;86.50
14014;DHT22;49110;52.584;13.408;2023-07-13T01:55:31;21.00;86.70
14014;DHT22;49110;52.584;13.408;2023-07-13T01:56:32;21.00;86.70
14014;DHT22;49110;52.584;13.408;2023-07-13T01:57:32;21.00;86.70
14014;DHT22;49110;52.584;13.408;2023-07-13T01:58:33;21.00;86.80
14014;DHT22;49110;52.584;13.408;2023-07-13T01:59:33;20.90;86.90
14014;DHT22;49110;52.584;13.408;2023-07-13T02:00:34;20.90;87.00
14014;DHT22;49110;52.584;13.408;2023-07-13T02:01:35;20.90;87.20
14014;DHT22;49110;52.584;13.408;2023-07-13T02:02:35;20.90;87.20
14014;DHT22;49110;52.584;13.408;2023-07-13T02:03:36;20.90;87.20
14014;DHT22;49110;52.584;13.408;2023-07-13T02:04:36;20.90;87.20
14014;DHT22;49110;52.584;13.408;2023-07-13T02:05:37;20.90;87.30
14014;DHT22;49110;52.584;13.408;2023-07-13T02:06:37;20.90;87.20
14014;DHT22;49110;52.584;13.408;2023-07-13T02:07:38;20.90;87.30
14014;DHT22;49110;52.584;13.408;2023-07-13T02:08:40;20.80;87.10
14014;DHT22;49110;52.584;13.408;2023-07-13T02:09:41;20.90;87.20
14014;DHT22;49110;52.584;13.408;2023-07-13T02:10:42;21.00;87.40
14014;DHT22;49110;52.584;13.408;2023-07-13T02:11:42;20.90;87.30
14014;DHT22;49110;52.584;13.408;2023-07-13T02:12:43;20.90;87.20
14014;DHT22;49110;52.584;13.408;2023-07-13T02:13:44;20.90;87.40
14014;DHT22;49110;52.584;13.408;2023-07-13T02:14:44;20.90;87.50
14014;DHT22;49110;52.584;13.408;2023-07-13T02:15:45;20.90;87.60
14014;DHT22;49110;52.584;13.408;2023-07-13T02:16:45;20.90;87.70
14014;DHT22;49110;52.584;13.408;2023-07-13T02:17:46;20.90;87.90
14014;DHT22;49110;52.584;13.408;2023-07-13T02:18:46;20.90;88.00
14014;DHT22;49110;52.584;13.408;2023-07-13T02:19:47;20.90;88.10
14014;DHT22;49110;52.584;13.408;2023-07-13T02:20:47;20.80;88.10
14014;DHT22;49110;52.584;13.408;2023-07-13T02:21:48;20.80;88.20
14014;DHT22;49110;52.584;13.408;2023-07-13T02:22:49;20.80;88.40
14014;DHT22;49110;52.584;13.408;2023-07-13T02:23:49;20.80;88.40
14014;DHT22;49110;52.584;13.408;2023-07-13T02:24:50;20.80;88.50
14014;DHT22;49110;52.584;13.408;2023-07-13T02:25:55;20.80;88.50
14014;DHT22;49110;52.584;13.408;2023-07-13T02:26:56;20.70;88.40
14014;DHT22;49110;52.584;13.408;2023-07-13T02:27:56;20.80;88.40
14014;DHT22;49110;52.584;13.408;2023-07-13T02:28:56;20.80;88.30
14014;DHT22;49110;52.584;13.408;2023-07-13T02:29:57;20.70;88.10
14014;DHT22;49110;52.584;13.408;2023-07-13T02:31:05;20.80;88.20
14014;DHT22;49110;52.584;13.408;2023-07-13T02:32:06;20.70;88.20
14014;DHT22;49110;52.584;13.408;2023-07-13T02:33:06;20.80;88.20
14014;DHT22;49110;52.584;13.408;2023-07-13T02:34:07;20.80;88.10
14014;DHT22;49110;52.584;13.408;2023-07-13T02:35:07;20.90;88.20
14014;DHT22;49110;52.584;13.408;2023-07-13T02:36:08;20.90;88.10
14014;DHT22;49110;52.584;13.408;2023-07-13T02:37:09;20.90;88.00
14014;DHT22;49110;52.584;13.408;2023-07-13T02:38:10;20.80;87.90
14014;DHT22;49110;52.584;13.408;2023-07-13T02:39:12;20.80;87.90
14014;DHT22;49110;52.584;13.408;2023-07-13T02:40:13;20.90;88.00
14014;DHT22;49110;52.584;13.408;2023-07-13T02:41:13;20.80;87.90
14014;DHT22;49110;52.584;13.408;2023-07-13T02:42:14;20.90;87.90
14014;DHT22;49110;52.584;13.408;2023-07-13T02:43:14;20.90;88.00
14014;DHT22;49110;52.584;13.408;2023-07-13T02:44:15;20.90;88.00
14014;DHT22;49110;52.584;13.408;2023-07-13T02:45:16;20.90;87.90
14014;DHT22;49110;52.584;13.408;2023-07-13T02:46:16;20.90;87.70
14014;DHT22;49110;52.584;13.408;2023-07-13T02:47:17;20.90;87.60
14014;DHT22;49110;52.584;13.408;2023-07-13T02:48:17;20.90;87.60
14014;DHT22;49110;52.584;13.408;2023-07-13T02:49:18;20.90;87.60
14014;DHT22;49110;52.584;13.408;2023-07-13T02:50:18;20.90;87.60
14014;DHT22;49110;52.584;13.408;2023-07-13T02:51:19;20.90;87.70
14014;DHT22;49110;52.584;13.408;2023-07-13T02:52:20;20.90;87.80
14014;DHT22;49110;52.584;13.408;2023-07-13T02:53:20;20.90;87.90
14014;DHT22;49110;52.584;13.408;2023-07-13T02:54:21;20.90;87.90
14014;DHT22;49110;52.584;13.408;2023-07-13T02:55:21;20.90;87.90
14014;DHT22;49110;52.584;13.408;2023-07-13T02:56:25;20.90;88.00
14014;DHT22;49110;52.584;13.408;2023-07-13T02:57:25;20.80;88.20
14014;DHT22;49110;52.584;13.408;2023-07-13T02:58:27;20.80;88.30
14014;DHT22;49110;52.584;13.408;2023-07-13T02:59:27;20.80;88.40
14014;DHT22;49110;52.584;13.408;2023-07-13T03:00:28;20.80;88.40
14014;DHT22;49110;52.584;13.408;2023-07-13T03:01:28;20.80;88.40
14014;DHT22;49110;52.584;13.408;2023-07-13T03:02:30;20.80;88.40
14014;DHT22;49110;52.584;13.408;2023-07-13T03:03:31;20.80;88.40
14014;DHT22;49110;52.584;13.408;2023-07-13T03:04:31;20.80;88.40
14014;DHT22;49110;52.584;13.408;2023-07-13T03:05:32;20.80;88.30
14014;DHT22;49110;52.584;13.408;2023-07-13T03:06:33;20.80;88.40
14014;DHT22;49110;52.584;13.408;2023-07-13T03:07:33;20.70;88.40
14014;DHT22;49110;52.584;13.408;2023-07-13T03:08:34;20.70;88.50
14014;DHT22;49110;52.584;13.408;2023-07-13T03:09:35;20.80;88.60
14014;DHT22;49110;52.584;13.408;2023-07-13T03:10:35;20.80;88.60
14014;DHT22;49110;52.584;13.408;2023-07-13T03:11:36;20.80;88.60
14014;DHT22;49110;52.584;13.408;2023-07-13T03:12:36;20.80;88.60
14014;DHT22;49110;52.584;13.408;2023-07-13T03:13:38;20.80;88.60
14014;DHT22;49110;52.584;13.408;2023-07-13T03:14:39;20.80;88.60
14014;DHT22;49110;52.584;13.408;2023-07-13T03:15:39;20.80;88.60
14014;DHT22;49110;52.584;13.408;2023-07-13T03:16:40;20.80;88.50
14014;DHT22;49110;52.584;13.408;2023-07-13T03:17:40;20.70;88.50
14014;DHT22;49110;52.584;13.408;2023-07-13T03:18:41;20.70;88.50
14014;DHT22;49110;52.584;13.408;2023-07-13T03:19:42;20.70;88.70
14014;DHT22;49110;52.584;13.408;2023-07-13T03:20:44;20.70;88.80
14014;DHT22;49110;52.584;13.408;2023-07-13T03:21:44;20.70;88.90
14014;DHT22;49110;52.584;13.408;2023-07-13T03:22:45;20.70;88.90
14014;DHT22;49110;52.584;13.408;2023-07-13T03:23:46;20.70;89.00
14014;DHT22;49110;52.584;13.408;2023-07-13T03:24:46;20.60;89.70
14014;DHT22;49110;52.584;13.408;2023-07-13T03:25:47;20.60;89.10
14014;DHT22;49110;52.584;13.408;2023-07-13T03:26:48;20.60;89.30
14014;DHT22;49110;52.584;13.408;2023-07-13T03:27:48;20.60;89.40
14014;DHT22;49110;52.584;13.408;2023-07-13T03:28:49;20.60;89.40
14014;DHT22;49110;52.584;13.408;2023-07-13T03:29:49;20.60;89.50
14014;DHT22;49110;52.584;13.408;2023-07-13T03:31:06;20.50;89.50
14014;DHT22;49110;52.584;13.408;2023-07-13T03:32:07;20.60;89.90
14014;DHT22;49110;52.584;13.408;2023-07-13T03:33:07;20.50;90.20
14014;DHT22;49110;52.584;13.408;2023-07-13T03:34:08;20.50;89.70
14014;DHT22;49110;52.584;13.408;2023-07-13T03:35:10;20.50;90.00
14014;DHT22;49110;52.584;13.408;2023-07-13T03:36:16;20.50;89.70
14014;DHT22;49110;52.584;13.408;2023-07-13T03:37:19;20.50;89.80
14014;DHT22;49110;52.584;13.408;2023-07-13T03:38:19;20.50;89.60
14014;DHT22;49110;52.584;13.408;2023-07-13T03:39:20;20.50;89.70
14014;DHT22;49110;52.584;13.408;2023-07-13T03:40:21;20.60;90.00
14014;DHT22;49110;52.584;13.408;2023-07-13T03:41:22;20.60;89.80
14014;DHT22;49110;52.584;13.408;2023-07-13T03:42:23;20.60;89.90
14014;DHT22;49110;52.584;13.408;2023-07-13T03:43:23;20.50;89.60
14014;DHT22;49110;52.584;13.408;2023-07-13T03:44:23;20.60;89.90
14014;DHT22;49110;52.584;13.408;2023-07-13T03:45:24;20.60;90.00
14014;DHT22;49110;52.584;13.408;2023-07-13T03:46:24;20.60;90.00
14014;DHT22;49110;52.584;13.408;2023-07-13T03:47:25;20.60;90.00
14014;DHT22;49110;52.584;13.408;2023-07-13T03:48:25;20.60;89.90
14014;DHT22;49110;52.584;13.408;2023-07-13T03:49:26;20.60;90.10
14014;DHT22;49110;52.584;13.408;2023-07-13T03:50:26;20.50;90.10
14014;DHT22;49110;52.584;13.408;2023-07-13T03:51:27;20.60;90.20
14014;DHT22;49110;52.584;13.408;2023-07-13T03:52:27;20.60;90.30
14014;DHT22;49110;52.584;13.408;2023-07-13T03:53:27;20.60;90.20
14014;DHT22;49110;52.584;13.408;2023-07-13T03:54:28;20.60;90.30
14014;DHT22;49110;52.584;13.408;2023-07-13T03:55:28;20.60;90.30
14014;DHT22;49110;52.584;13.408;2023-07-13T03:56:29;20.60;90.30
14014;DHT22;49110;52.584;13.408;2023-07-13T03:57:30;20.60;90.30
14014;DHT22;49110;52.584;13.408;2023-07-13T03:58:34;20.60;90.20
14014;DHT22;49110;52.584;13.408;2023-07-13T03:59:34;20.70;90.20
14014;DHT22;49110;52.584;13.408;2023-07-13T04:00:35;20.70;90.20
14014;DHT22;49110;52.584;13.408;2023-07-13T04:01:35;20.70;90.20
14014;DHT22;49110;52.584;13.408;2023-07-13T04:02:36;20.70;90.20
14014;DHT22;49110;52.584;13.408;2023-07-13T04:03:37;20.80;90.10
14014;DHT22;49110;52.584;13.408;2023-07-13T04:04:38;20.80;90.10
14014;DHT22;49110;52.584;13.408;2023-07-13T04:05:40;20.80;90.20
14014;DHT22;49110;52.584;13.408;2023-07-13T04:06:41;20.80;90.20
14014;DHT22;49110;52.584;13.408;2023-07-13T04:07:41;20.80;90.20
14014;DHT22;49110;52.584;13.408;2023-07-13T04:08:42;20.80;90.30
14014;DHT22;49110;52.584;13.408;2023-07-13T04:09:43;20.90;90.60
14014;DHT22;49110;52.584;13.408;2023-07-13T04:10:43;20.90;90.30
14014;DHT22;49110;52.584;13.408;2023-07-13T04:11:44;20.90;90.30
14014;DHT22;49110;52.584;13.408;2023-07-13T04:12:44;20.90;90.30
14014;DHT22;49110;52.584;13.408;2023-07-13T04:13:46;20.80;90.20
14014;DHT22;49110;52.584;13.408;2023-07-13T04:14:46;20.90;90.30
14014;DHT22;49110;52.584;13.408;2023-07-13T04:15:47;20.80;90.30
14014;DHT22;49110;52.584;13.408;2023-07-13T04:16:47;20.90;90.40
14014;DHT22;49110;52.584;13.408;2023-07-13T04:17:48;20.80;90.40
14014;DHT22;49110;52.584;13.408;2023-07-13T04:18:48;20.80;90.30
14014;DHT22;49110;52.584;13.408;2023-07-13T04:19:49;20.90;90.30
14014;DHT22;49110;52.584;13.408;2023-07-13T04:20:50;20.80;90.20
14014;DHT22;49110;52.584;13.408;2023-07-13T04:21:51;20.80;90.20
14014;DHT22;49110;52.584;13.408;2023-07-13T04:22:52;20.80;90.40
14014;DHT22;49110;52.584;13.408;2023-07-13T04:23:54;20.80;90.50
14014;DHT22;49110;52.584;13.408;2023-07-13T04:24:54;20.80;90.50
14014;DHT22;49110;52.584;13.408;2023-07-13T04:25:54;20.80;90.50
14014;DHT22;49110;52.584;13.408;2023-07-13T04:26:55;20.80;90.50
14014;DHT22;49110;52.584;13.408;2023-07-13T04:27:59;20.80;90.60
14014;DHT22;49110;52.584;13.408;2023-07-13T04:29:00;20.80;90.50
14014;DHT22;49110;52.584;13.408;2023-07-13T04:30:00;20.80;90.40
14014;DHT22;49110;52.584;13.408;2023-07-13T04:31:01;20.80;90.40
14014;DHT22;49110;52.584;13.408;2023-07-13T04:32:02;20.80;90.30
14014;DHT22;49110;52.584;13.408;2023-07-13T04:33:02;20.80;90.30
14014;DHT22;49110;52.584;13.408;2023-07-13T04:34:03;20.80;90.40
14014;DHT22;49110;52.584;13.408;2023-07-13T04:35:03;20.80;90.60
14014;DHT22;49110;52.584;13.408;2023-07-13T04:36:05;20.80;90.60
14014;DHT22;49110;52.584;13.408;2023-07-13T04:37:06;20.90;90.60
14014;DHT22;49110;52.584;13.408;2023-07-13T04:38:07;20.90;90.60
14014;DHT22;49110;52.584;13.408;2023-07-13T04:39:07;20.90;90.40
14014;DHT22;49110;52.584;13.408;2023-07-13T04:40:09;20.90;90.40
14014;DHT22;49110;52.584;13.408;2023-07-13T04:41:13;20.90;90.40
14014;DHT22;49110;52.584;13.408;2023-07-13T04:42:14;21.00;90.40
14014;DHT22;49110;52.584;13.408;2023-07-13T04:43:15;21.00;90.40
14014;DHT22;49110;52.584;13.408;2023-07-13T04:44:16;20.90;90.30
14014;DHT22;49110;52.584;13.408;2023-07-13T04:45:17;21.00;90.20
14014;DHT22;49110;52.584;13.408;2023-07-13T04:46:17;21.00;90.30
14014;DHT22;49110;52.584;13.408;2023-07-13T04:47:19;21.00;90.40
14014;DHT22;49110;52.584;13.408;2023-07-13T04:48:20;21.00;90.30
14014;DHT22;49110;52.584;13.408;2023-07-13T04:49:20;21.00;90.10
14014;DHT22;49110;52.584;13.408;2023-07-13T04:50:21;21.00;90.00
14014;DHT22;49110;52.584;13.408;2023-07-13T04:51:23;21.00;90.00
14014;DHT22;49110;52.584;13.408;2023-07-13T04:52:24;21.00;90.10
14014;DHT22;49110;52.584;13.408;2023-07-13T04:53:25;21.00;90.00
14014;DHT22;49110;52.584;13.408;2023-07-13T04:54:26;21.00;90.10
14014;DHT22;49110;52.584;13.408;2023-07-13T04:55:26;21.00;90.10
14014;DHT22;49110;52.584;13.408;2023-07-13T04:56:30;21.00;90.10
14014;DHT22;49110;52.584;13.408;2023-07-13T04:57:31;21.00;90.00
14014;DHT22;49110;52.584;13.408;2023-07-13T04:58:33;21.00;90.10
14014;DHT22;49110;52.584;13.408;2023-07-13T04:59:34;21.10;90.30
14014;DHT22;49110;52.584;13.408;2023-07-13T05:00:34;21.10;90.10
14014;DHT22;49110;52.584;13.408;2023-07-13T05:01:35;21.00;90.10
14014;DHT22;49110;52.584;13.408;2023-07-13T05:02:38;21.00;90.20
14014;DHT22;49110;52.584;13.408;2023-07-13T05:03:38;21.00;90.30
14014;DHT22;49110;52.584;13.408;2023-07-13T05:04:39;21.10;90.30
14014;DHT22;49110;52.584;13.408;2023-07-13T05:05:39;21.10;89.90
14014;DHT22;49110;52.584;13.408;2023-07-13T05:06:40;21.00;89.80
14014;DHT22;49110;52.584;13.408;2023-07-13T05:07:40;21.00;90.10
14014;DHT22;49110;52.584;13.408;2023-07-13T05:08:41;21.00;90.20
14014;DHT22;49110;52.584;13.408;2023-07-13T05:09:41;21.00;90.30
14014;DHT22;49110;52.584;13.408;2023-07-13T05:10:42;21.10;90.30
14014;DHT22;49110;52.584;13.408;2023-07-13T05:11:43;21.10;90.30
14014;DHT22;49110;52.584;13.408;2023-07-13T05:12:44;21.10;90.10
14014;DHT22;49110;52.584;13.408;2023-07-13T05:13:44;21.10;90.00
14014;DHT22;49110;52.584;13.408;2023-07-13T05:14:45;21.10;90.10
14014;DHT22;49110;52.584;13.408;2023-07-13T05:15:46;21.00;90.10
14014;DHT22;49110;52.584;13.408;2023-07-13T05:16:47;21.10;90.30
14014;DHT22;49110;52.584;13.408;2023-07-13T05:17:48;21.10;90.30
14014;DHT22;49110;52.584;13.408;2023-07-13T05:18:49;21.10;90.20
14014;DHT22;49110;52.584;13.408;2023-07-13T05:19:49;21.10;90.30
14014;DHT22;49110;52.584;13.408;2023-07-13T05:21:07;21.20;90.40
14014;DHT22;49110;52.584;13.408;2023-07-13T05:22:08;21.20;90.50
14014;DHT22;49110;52.584;13.408;2023-07-13T05:23:08;21.20;90.50
14014;DHT22;49110;52.584;13.408;2023-07-13T05:24:09;21.10;90.10
14014;DHT22;49110;52.584;13.408;2023-07-13T05:25:09;21.10;90.20
14014;DHT22;49110;52.584;13.408;2023-07-13T05:26:10;21.10;90.40
14014;DHT22;49110;52.584;13.408;2023-07-13T05:27:10;21.20;90.40
14014;DHT22;49110;52.584;13.408;2023-07-13T05:28:11;21.20;90.30
14014;DHT22;49110;52.584;13.408;2023-07-13T05:29:11;21.20;90.30
14014;DHT22;49110;52.584;13.408;2023-07-13T05:30:12;21.20;90.40
14014;DHT22;49110;52.584;13.408;2023-07-13T05:31:13;21.20;90.40
14014;DHT22;49110;52.584;13.408;2023-07-13T05:32:14;21.30;90.30
14014;DHT22;49110;52.584;13.408;2023-07-13T05:33:15;21.30;90.20
14014;DHT22;49110;52.584;13.408;2023-07-13T05:34:16;21.20;90.10
14014;DHT22;49110;52.584;13.408;2023-07-13T05:35:17;21.20;90.20
14014;DHT22;49110;52.584;13.408;2023-07-13T05:36:17;21.20;90.30
14014;DHT22;49110;52.584;13.408;2023-07-13T05:37:18;21.20;90.30
14014;DHT22;49110;52.584;13.408;2023-07-13T05:38:18;21.20;90.10
14014;DHT22;49110;52.584;13.408;2023-07-13T05:39:19;21.20;90.30
14014;DHT22;49110;52.584;13.408;2023-07-13T05:40:19;21.20;90.30
14014;DHT22;49110;52.584;13.408;2023-07-13T05:41:20;21.20;90.30
14014;DHT22;49110;52.584;13.408;2023-07-13T05:42:20;21.20;90.30
14014;DHT22;49110;52.584;13.408;2023-07-13T05:43:21;21.30;90.50
14014;DHT22;49110;52.584;13.408;2023-07-13T05:44:22;21.30;90.50
14014;DHT22;49110;52.584;13.408;2023-07-13T05:45:22;21.40;90.40
14014;DHT22;49110;52.584;13.408;2023-07-13T05:46:23;21.30;90.00
14014;DHT22;49110;52.584;13.408;2023-07-13T05:47:23;21.30;90.20
14014;DHT22;49110;52.584;13.408;2023-07-13T05:48:24;21.40;90.10
14014;DHT22;49110;52.584;13.408;2023-07-13T05:49:25;21.30;90.00
14014;DHT22;49110;52.584;13.408;2023-07-13T05:50:26;21.30;90.00
14014;DHT22;49110;52.584;13.408;2023-07-13T05:51:27;21.40;90.10
14014;DHT22;49110;52.584;13.408;2023-07-13T05:52:27;21.40;90.10
14014;DHT22;49110;52.584;13.408;2023-07-13T05:53:27;21.40;90.10
14014;DHT22;49110;52.584;13.408;2023-07-13T05:54:28;21.50;90.10
14014;DHT22;49110;52.584;13.408;2023-07-13T05:55:28;21.50;90.10
14014;DHT22;49110;52.584;13.408;2023-07-13T05:56:29;21.50;90.10
14014;DHT22;49110;52.584;13.408;2023-07-13T05:57:30;21.60;90.30
14014;DHT22;49110;52.584;13.408;2023-07-13T05:58:31;21.60;90.20
14014;DHT22;49110;52.584;13.408;2023-07-13T05:59:31;21.70;90.00
14014;DHT22;49110;52.584;13.408;2023-07-13T06:00:32;21.70;90.20
14014;DHT22;49110;52.584;13.408;2023-07-13T06:01:34;21.70;90.00
14014;DHT22;49110;52.584;13.408;2023-07-13T06:02:35;21.70;89.90
14014;DHT22;49110;52.584;13.408;2023-07-13T06:03:36;21.70;89.90
14014;DHT22;49110;52.584;13.408;2023-07-13T06:04:38;21.80;89.90
14014;DHT22;49110;52.584;13.408;2023-07-13T06:05:39;21.80;89.80
14014;DHT22;49110;52.584;13.408;2023-07-13T06:06:39;21.90;90.10
14014;DHT22;49110;52.584;13.408;2023-07-13T06:07:41;21.90;90.10
14014;DHT22;49110;52.584;13.408;2023-07-13T06:08:41;22.00;89.40
14014;DHT22;49110;52.584;13.408;2023-07-13T06:09:42;22.00;88.40
14014;DHT22;49110;52.584;13.408;2023-07-13T06:10:43;21.90;88.30
14014;DHT22;49110;52.584;13.408;2023-07-13T06:11:43;21.90;88.30
14014;DHT22;49110;52.584;13.408;2023-07-13T06:12:44;21.90;88.30
14014;DHT22;49110;52.584;13.408;2023-07-13T06:13:44;21.90;88.30
14014;DHT22;49110;52.584;13.408;2023-07-13T06:14:45;21.90;88.40
14014;DHT22;49110;52.584;13.408;2023-07-13T06:15:51;21.80;88.20
14014;DHT22;49110;52.584;13.408;2023-07-13T06:16:51;22.00;88.60
14014;DHT22;49110;52.584;13.408;2023-07-13T06:17:52;21.90;88.10
14014;DHT22;49110;52.584;13.408;2023-07-13T06:18:52;22.00;88.50
14014;DHT22;49110;52.584;13.408;2023-07-13T06:19:53;22.00;87.90
14014;DHT22;49110;52.584;13.408;2023-07-13T06:20:53;22.00;87.50
14014;DHT22;49110;52.584;13.408;2023-07-13T06:21:54;22.00;87.90